Time;durP1;ratioP1;P1;durP2;ratioP2;P2;SDS_P1;SDS_P2;PMS_P1;PMS_P2;Temp;Humidity;BMP_temperature;BMP_pressure;BME280_temperature;BME280_humidity;BME280_pressure;Samples;Min_cycle;Max_cycle;Signal;HPM_P1;HPM_P2
2023/01/10 00:02:46;;;;;;;3.73;2.70;;;;;;;3.33;100.00;95742.09;10530681;28;20232;-63
2023/01/10 00:07:46;;;;;;;6.37;2.70;;;;;;;3.39;100.00;95746.72;10531690;28;20213;-65
2023/01/10 00:18:05;;;;;;;4.23;2.57;;;;;;;3.36;100.00;95742.63;10531319;28;20202;-65
2023/01/10 00:23:06;;;;;;;3.83;2.60;;;;;;;3.30;100.00;95753.53;10530756;28;20218;-65
2023/01/10 00:28:18;;;;;;;5.60;3.00;;;;;;;3.29;100.00;95771.78;10530398;28;20297;-66
2023/01/10 00:33:19;;;;;;;3.17;2.83;;;;;;;3.52;100.00;95773.19;10529904;28;21112;-64
2023/01/10 00:38:19;;;;;;;4.67;2.80;;;;;;;3.54;100.00;95779.03;10530484;28;20238;-66
2023/01/10 00:48:40;;;;;;;5.63;3.13;;;;;;;3.52;100.00;95801.66;10530186;28;20214;-64
2023/01/10 00:53:40;;;;;;;5.27;3.70;;;;;;;3.47;100.00;95818.53;10529882;28;20551;-66
2023/01/10 00:58:41;;;;;;;4.07;2.83;;;;;;;3.59;100.00;95835.59;10529827;28;20219;-66
2023/01/10 01:03:41;;;;;;;8.27;3.10;;;;;;;3.68;100.00;95836.56;10529602;28;20225;-65
2023/01/10 01:08:41;;;;;;;4.90;3.10;;;;;;;3.52;100.00;95839.66;10530213;28;20565;-66
2023/01/10 01:13:42;;;;;;;4.57;3.10;;;;;;;3.53;100.00;95862.03;10534953;28;20928;-65
2023/01/10 01:18:42;;;;;;;4.03;3.30;;;;;;;3.41;100.00;95868.28;10537345;28;20575;-66
2023/01/10 01:23:43;;;;;;;7.57;3.30;;;;;;;3.50;100.00;95886.41;10536220;28;20768;-66
2023/01/10 01:28:43;;;;;;;6.27;3.37;;;;;;;3.39;100.00;95889.13;10532435;28;20644;-65
2023/01/10 01:33:44;;;;;;;9.90;3.23;;;;;;;3.51;100.00;95890.66;10494131;28;20881;-64
2023/01/10 01:38:44;;;;;;;7.93;3.83;;;;;;;3.29;100.00;95898.63;10494359;28;20273;-66
2023/01/10 01:44:00;;;;;;;6.40;3.70;;;;;;;3.43;100.00;95903.44;10494166;28;20298;-66
2023/01/10 01:49:03;;;;;;;6.63;4.13;;;;;;;3.35;100.00;95901.50;10494505;28;20218;-66
2023/01/10 01:54:06;;;;;;;8.20;4.00;;;;;;;3.39;100.00;95902.06;10494057;28;20191;-66
2023/01/10 01:59:20;;;;;;;7.00;3.80;;;;;;;3.33;100.00;95908.56;10474386;28;20199;-65
2023/01/10 02:04:23;;;;;;;7.60;4.67;;;;;;;3.26;100.00;95906.63;10493104;28;20720;-64
2023/01/10 02:09:33;;;;;;;8.00;4.13;;;;;;;3.18;100.00;95921.03;10492935;28;20230;-64
2023/01/10 02:14:33;;;;;;;6.07;4.00;;;;;;;3.17;100.00;95922.00;10475597;28;20622;-65
2023/01/10 02:19:51;;;;;;;8.63;4.17;;;;;;;3.20;100.00;95926.09;10474823;28;20222;-64
2023/01/10 02:25:18;;;;;;;6.00;4.53;;;;;;;3.14;100.00;95939.56;10491726;28;20222;-64
2023/01/10 02:30:24;;;;;;;7.33;4.67;;;;;;;3.11;100.00;95948.41;10473260;28;20222;-65
2023/01/10 02:35:37;;;;;;;6.93;4.37;;;;;;;3.08;100.00;95942.66;10491189;28;20198;-65
2023/01/10 02:41:00;;;;;;;7.93;5.03;;;;;;;2.90;100.00;95952.81;10472285;28;20752;-65
2023/01/10 02:46:04;;;;;;;9.53;4.50;;;;;;;3.06;100.00;95958.31;10472661;28;20636;-65
2023/01/10 02:51:20;;;;;;;8.10;4.60;;;;;;;3.09;100.00;95959.84;10473530;28;20723;-65
2023/01/10 02:56:23;;;;;;;10.60;5.07;;;;;;;3.01;100.00;95976.81;10490955;28;20256;-65
2023/01/10 03:01:42;;;;;;;11.60;5.13;;;;;;;2.90;100.00;95995.00;10491388;28;20257;-65
2023/01/10 03:06:51;;;;;;;9.83;5.30;;;;;;;3.03;100.00;95994.78;10490968;28;20230;-64
2023/01/10 03:11:59;;;;;;;8.47;5.27;;;;;;;3.12;100.00;95994.03;10472993;28;20195;-66
2023/01/10 03:17:04;;;;;;;9.30;4.70;;;;;;;3.08;100.00;96013.38;10473157;28;20207;-63
2023/01/10 03:22:05;;;;;;;10.47;5.60;;;;;;;2.92;100.00;96018.16;10471747;28;20594;-63
2023/01/10 03:27:10;;;;;;;8.17;5.77;;;;;;;2.83;100.00;96036.09;10471892;28;20272;-64
2023/01/10 03:32:12;;;;;;;11.27;6.23;;;;;;;2.85;100.00;96044.53;10471532;28;20735;-65
2023/01/10 03:37:18;;;;;;;9.67;6.03;;;;;;;2.93;100.00;96054.25;10511537;22;20250;-60
2023/01/10 03:48:02;;;;;;;10.23;6.00;;;;;;;2.72;100.00;96082.66;10515964;28;20210;-64
2023/01/10 03:53:03;;;;;;;10.43;6.10;;;;;;;2.66;100.00;96091.75;10530498;28;20183;-62
2023/01/10 03:58:03;;;;;;;12.37;6.53;;;;;;;2.61;100.00;96093.06;10531177;28;20253;-61
2023/01/10 04:03:03;;;;;;;14.00;6.90;;;;;;;2.64;100.00;96100.56;10527087;28;20218;-63
2023/01/10 04:08:04;;;;;;;13.40;6.70;;;;;;;2.64;100.00;96110.91;10525056;28;20221;-62
2023/01/10 04:13:04;;;;;;;9.37;6.27;;;;;;;2.66;100.00;96119.38;10522690;28;20215;-63
2023/01/10 04:18:05;;;;;;;11.23;6.60;;;;;;;2.64;100.00;96127.25;10523627;28;20217;-63
2023/01/10 04:23:05;;;;;;;13.73;7.40;;;;;;;2.68;100.00;96138.19;10523093;28;20219;-61
2023/01/10 04:28:05;;;;;;;12.73;7.07;;;;;;;2.74;100.00;96150.63;10522541;28;20225;-61
2023/01/10 04:33:06;;;;;;;16.23;7.63;;;;;;;2.75;100.00;96167.78;10523635;28;20202;-60
2023/01/10 04:38:06;;;;;;;14.40;7.53;;;;;;;2.72;100.00;96177.56;10522909;28;20329;-63
2023/01/10 04:43:07;;;;;;;11.57;7.53;;;;;;;2.79;100.00;96189.06;10523523;28;20226;-61
2023/01/10 04:48:07;;;;;;;14.83;7.23;;;;;;;2.67;100.00;96193.44;10528771;28;20213;-63
2023/01/10 04:53:07;;;;;;;13.97;6.53;;;;;;;2.74;100.00;96207.53;10530357;28;20190;-62
2023/01/10 04:58:08;;;;;;;10.03;6.20;;;;;;;2.73;100.00;96207.66;10531080;28;20583;-60
2023/01/10 05:03:08;;;;;;;12.60;6.53;;;;;;;2.80;100.00;96214.81;10534065;28;20225;-61
2023/01/10 05:08:08;;;;;;;9.53;6.60;;;;;;;2.75;100.00;96223.88;10537900;28;20224;-61
2023/01/10 05:13:09;;;;;;;19.40;8.60;;;;;;;2.80;100.00;96225.16;10537523;28;20281;-62
2023/01/10 05:18:09;;;;;;;12.87;7.30;;;;;;;2.71;100.00;96233.63;10537145;28;20211;-62
2023/01/10 05:23:09;;;;;;;13.23;6.70;;;;;;;2.76;100.00;96244.44;10537154;28;20214;-61
2023/01/10 05:28:10;;;;;;;12.57;6.50;;;;;;;2.72;100.00;96249.97;10537394;28;20302;-61
2023/01/10 05:33:10;;;;;;;11.07;5.93;;;;;;;2.78;100.00;96265.81;10535757;28;20190;-61
2023/01/10 05:38:11;;;;;;;11.83;6.43;;;;;;;2.82;100.00;96264.66;10537290;28;20321;-62
2023/01/10 05:43:11;;;;;;;9.33;6.70;;;;;;;2.73;100.00;96278.28;10536153;28;20268;-62
2023/01/10 05:48:11;;;;;;;13.67;6.00;;;;;;;2.77;100.00;96286.63;10536310;28;20218;-59
2023/01/10 05:53:12;;;;;;;9.33;6.17;;;;;;;2.78;100.00;96291.69;10535544;28;20273;-62
2023/01/10 05:58:12;;;;;;;11.40;7.33;;;;;;;2.83;100.00;96305.09;10535981;28;20367;-61
2023/01/10 06:03:12;;;;;;;13.13;6.60;;;;;;;2.81;100.00;96319.91;10534794;28;20232;-61
2023/01/10 06:08:13;;;;;;;11.80;6.40;;;;;;;2.90;100.00;96317.56;10535723;28;20566;-61
2023/01/10 06:13:14;;;;;;;9.37;6.27;;;;;;;2.81;100.00;96322.50;10535394;28;20189;-61
2023/01/10 06:18:14;;;;;;;9.60;7.07;;;;;;;2.77;100.00;96336.63;10534874;28;20226;-59
2023/01/10 06:23:15;;;;;;;12.87;8.10;;;;;;;2.68;100.00;96343.31;10534685;28;20218;-60
2023/01/10 06:28:15;;;;;;;9.80;6.53;;;;;;;2.78;100.00;96355.53;10534659;28;20571;-60
2023/01/10 06:33:16;;;;;;;11.23;6.57;;;;;;;2.79;100.00;96370.13;10533622;28;20178;-61
2023/01/10 06:38:17;;;;;;;12.67;6.67;;;;;;;2.74;100.00;96378.22;10533984;28;20234;-62
2023/01/10 06:43:17;;;;;;;14.00;6.50;;;;;;;2.73;100.00;96378.34;10533851;28;20226;-61
2023/01/10 06:48:17;;;;;;;10.57;6.50;;;;;;;2.61;100.00;96393.03;10533765;28;20215;-61
2023/01/10 06:53:18;;;;;;;12.43;7.17;;;;;;;2.72;100.00;96415.50;10533450;28;20217;-59
2023/01/10 06:58:18;;;;;;;10.37;6.77;;;;;;;2.79;100.00;96430.44;10533873;28;20639;-61
2023/01/10 07:03:19;;;;;;;13.53;7.00;;;;;;;2.86;100.00;96433.38;10532528;28;20229;-60
2023/01/10 07:08:19;;;;;;;8.30;6.57;;;;;;;2.82;100.00;96447.50;10532721;28;20210;-62
2023/01/10 07:13:19;;;;;;;8.83;5.83;;;;;;;2.82;100.00;96448.31;10532381;28;20563;-61
2023/01/10 07:18:20;;;;;;;14.83;7.53;;;;;;;2.81;100.00;96464.75;10532919;28;20696;-61
2023/01/10 07:23:21;;;;;;;11.23;6.37;;;;;;;2.66;100.00;96478.84;10532401;28;20222;-61
2023/01/10 07:28:21;;;;;;;11.37;6.00;;;;;;;2.75;100.00;96469.56;10532468;28;20306;-62
2023/01/10 07:33:21;;;;;;;9.73;5.67;;;;;;;2.58;100.00;96488.94;10531525;28;20189;-61
2023/01/10 07:38:22;;;;;;;9.23;7.07;;;;;;;2.52;100.00;96508.28;10532177;28;20348;-62
2023/01/10 07:43:22;;;;;;;17.30;11.00;;;;;;;2.62;100.00;96521.38;10533740;28;20221;-62
2023/01/10 07:48:22;;;;;;;15.43;8.67;;;;;;;2.59;100.00;96530.19;10519212;28;20215;-61
2023/01/10 07:53:24;;;;;;;15.53;8.60;;;;;;;2.62;100.00;96532.56;10499990;28;20198;-61
2023/01/10 07:58:24;;;;;;;13.83;8.37;;;;;;;2.66;100.00;96535.72;10510725;28;20701;-61
2023/01/10 08:03:25;;;;;;;16.23;8.63;;;;;;;2.72;100.00;96542.22;10527536;28;20219;-62
2023/01/10 08:08:25;;;;;;;13.23;8.47;;;;;;;2.73;100.00;96547.28;10528660;28;20206;-59
2023/01/10 08:13:26;;;;;;;11.03;8.23;;;;;;;2.76;100.00;96554.00;10509161;28;20186;-61
2023/01/10 08:18:26;;;;;;;10.93;7.23;;;;;;;2.75;100.00;96563.50;10524000;28;20218;-61
2023/01/10 08:23:27;;;;;;;10.90;7.20;;;;;;;2.66;100.00;96569.34;10535607;28;20657;-61
2023/01/10 08:28:27;;;;;;;9.20;5.50;;;;;;;2.69;100.00;96576.88;10530959;28;20206;-60
2023/01/10 08:33:27;;;;;;;5.07;4.17;;;;;;;2.71;100.00;96580.22;10503569;28;20245;-62
2023/01/10 08:38:28;;;;;;;9.23;4.90;;;;;;;2.87;100.00;96592.03;10510729;28;20241;-62
2023/01/10 08:43:28;;;;;;;9.13;4.80;;;;;;;2.88;100.00;96597.09;10533440;28;20254;-62
2023/01/10 08:48:29;;;;;;;8.37;5.63;;;;;;;2.94;100.00;96607.00;10532731;28;20748;-60
2023/01/10 08:53:30;;;;;;;7.53;5.80;;;;;;;2.95;100.00;96607.81;10534848;28;20699;-62
2023/01/10 08:58:31;;;;;;;8.10;5.17;;;;;;;2.92;100.00;96621.78;10532225;28;20719;-62
2023/01/10 09:03:32;;;;;;;8.93;5.40;;;;;;;3.07;100.00;96614.69;10533044;28;20226;-62
2023/01/10 09:08:33;;;;;;;6.13;4.73;;;;;;;3.09;100.00;96620.56;10534849;28;20228;-62
2023/01/10 09:13:33;;;;;;;4.93;3.53;;;;;;;3.32;100.00;96636.16;10532346;28;20186;-61
2023/01/10 09:18:33;;;;;;;5.70;3.23;;;;;;;3.26;100.00;96663.31;10532856;28;20210;-61
2023/01/10 09:23:34;;;;;;;4.90;3.17;;;;;;;3.04;100.00;96656.31;10531828;28;20222;-61
2023/01/10 09:28:34;;;;;;;5.93;3.67;;;;;;;2.83;100.00;96667.28;10531915;28;20329;-62
2023/01/10 09:33:35;;;;;;;4.63;3.13;;;;;;;2.96;100.00;96676.75;10530950;28;20260;-62
2023/01/10 09:38:35;;;;;;;6.60;4.60;;;;;;;2.83;100.00;96681.94;10568209;22;20242;-68
2023/01/10 09:44:04;;;;;;;7.13;4.13;;;;;;;2.85;100.00;96686.09;10573476;28;20278;-68
2023/01/10 09:49:20;;;;;;;6.47;4.77;;;;;;;2.91;100.00;96692.59;10512568;28;20219;-67
2023/01/10 09:54:35;;;;;;;8.37;5.20;;;;;;;2.98;100.00;96705.91;10520776;28;20183;-64
2023/01/10 09:59:38;;;;;;;8.20;4.93;;;;;;;2.98;100.00;96711.91;10531586;28;20205;-67
2023/01/10 10:04:39;;;;;;;14.37;5.20;;;;;;;2.92;100.00;96711.53;10531376;28;20218;-67
2023/01/10 10:09:40;;;;;;;11.97;4.80;;;;;;;3.25;100.00;96718.66;10530023;28;20219;-66
2023/01/10 10:15:06;;;;;;;5.53;3.47;;;;;;;3.30;100.00;96708.78;10531615;28;20236;-65
2023/01/10 10:20:27;;;;;;;11.53;3.67;;;;;;;3.45;100.00;96704.25;10530176;28;20722;-66
2023/01/10 10:25:43;;;;;;;10.13;3.77;;;;;;;3.37;100.00;96693.63;10509801;28;20222;-66
2023/01/10 10:31:02;;;;;;;6.93;3.00;;;;;;;3.42;100.00;96696.69;10519829;28;20241;-67
2023/01/10 10:36:09;;;;;;;6.77;3.30;;;;;;;3.56;100.00;96708.63;10529345;28;20192;-66
2023/01/10 10:41:17;;;;;;;5.70;2.73;;;;;;;3.59;100.00;96702.41;10511470;28;20295;-64
2023/01/10 10:46:18;;;;;;;7.53;3.43;;;;;;;3.67;100.00;96692.28;10511254;28;20236;-63
2023/01/10 10:51:25;;;;;;;8.83;3.80;;;;;;;3.82;100.00;96690.34;10529897;28;20246;-65
2023/01/10 10:56:26;;;;;;;7.77;3.53;;;;;;;3.98;100.00;96701.22;10509774;28;20214;-64
2023/01/10 11:01:26;;;;;;;14.10;4.57;;;;;;;4.03;100.00;96708.63;10529655;28;20322;-65
2023/01/10 11:06:29;;;;;;;10.70;3.90;;;;;;;3.98;100.00;96719.34;10528482;28;20317;-65
2023/01/10 11:11:35;;;;;;;10.07;4.20;;;;;;;3.61;100.00;96727.25;10510998;28;20210;-63
2023/01/10 11:16:42;;;;;;;15.93;5.30;;;;;;;3.62;100.00;96738.44;10510260;28;20248;-64
2023/01/10 11:21:49;;;;;;;14.10;4.83;;;;;;;3.62;100.00;96738.44;10529447;28;20218;-65
2023/01/10 11:26:50;;;;;;;14.17;5.13;;;;;;;3.90;100.00;96722.50;10526276;28;20229;-64
2023/01/10 11:31:52;;;;;;;11.53;3.73;;;;;;;3.56;100.00;96729.34;10527446;28;20225;-65
2023/01/10 11:37:02;;;;;;;7.63;3.37;;;;;;;3.66;100.00;96734.69;10527628;28;20194;-65
2023/01/10 11:42:24;;;;;;;10.67;3.53;;;;;;;3.61;100.00;96731.59;10526715;28;20226;-63
2023/01/10 11:47:24;;;;;;;5.53;3.20;;;;;;;3.56;100.00;96716.41;10526639;28;20253;-65
2023/01/10 11:52:26;;;;;;;12.30;3.67;;;;;;;3.89;100.00;96722.59;10527323;28;20197;-62
2023/01/10 11:57:29;;;;;;;14.73;3.67;;;;;;;3.83;100.00;96720.47;10526961;28;20202;-63
2023/01/10 12:02:33;;;;;;;11.07;3.47;;;;;;;4.07;100.00;96723.00;10506482;28;20279;-64
2023/01/10 12:08:05;;;;;;;11.03;6.47;;;;;;;3.93;100.00;96731.81;10527722;28;20262;-64
2023/01/10 12:13:14;;;;;;;10.97;3.80;;;;;;;3.63;100.00;96743.53;10509909;28;20247;-62
2023/01/10 12:18:16;;;;;;;16.13;3.43;;;;;;;3.60;100.00;96748.94;10526205;28;20222;-63
2023/01/10 12:23:20;;;;;;;17.30;3.00;;;;;;;3.65;100.00;96741.63;10525803;28;20248;-64
2023/01/10 12:28:27;;;;;;;10.07;2.53;;;;;;;3.81;100.00;96743.09;10528061;28;20241;-65
2023/01/10 12:33:35;;;;;;;7.30;3.17;;;;;;;4.03;100.00;96757.88;10522137;28;20197;-65
2023/01/10 12:44:11;;;;;;;11.43;2.80;;;;;;;4.14;100.00;96750.13;10510859;28;20211;-65
2023/01/10 12:49:23;;;;;;;4.80;2.73;;;;;;;4.71;100.00;96740.59;10508667;28;20626;-66
2023/01/10 12:54:26;;;;;;;6.83;2.50;;;;;;;4.85;100.00;96736.09;10506829;28;20175;-66
2023/01/10 12:59:40;;;;;;;9.40;2.90;;;;;;;4.43;100.00;96718.56;10527235;28;20213;-66
2023/01/10 13:04:41;;;;;;;6.17;2.53;;;;;;;4.63;100.00;96728.22;10505396;28;20337;-66
2023/01/10 13:09:42;;;;;;;7.73;2.70;;;;;;;4.22;100.00;96728.78;10521782;28;20225;-66
2023/01/10 13:14:48;;;;;;;16.53;5.20;;;;;;;4.33;100.00;96743.53;10511847;28;20905;-65
2023/01/10 13:20:18;;;;;;;89.83;24.57;;;;;;;4.49;100.00;96736.25;10533073;28;20233;-66
2023/01/10 13:25:30;;;;;;;17.83;4.77;;;;;;;4.56;100.00;96736.59;10528462;28;20235;-66
2023/01/10 13:30:36;;;;;;;7.80;3.70;;;;;;;4.28;100.00;96736.91;10511020;28;20225;-65
2023/01/10 13:35:38;;;;;;;12.37;2.60;;;;;;;4.14;99.99;96744.13;10531833;28;20198;-65
2023/01/10 13:40:39;;;;;;;11.90;4.10;;;;;;;4.13;100.00;96765.78;10530782;28;20693;-64
2023/01/10 13:45:41;;;;;;;14.17;6.30;;;;;;;4.18;100.00;96769.69;10531867;28;20279;-66
2023/01/10 13:50:49;;;;;;;13.23;5.30;;;;;;;4.23;99.76;96767.56;10515520;28;20213;-66
2023/01/10 13:55:54;;;;;;;6.07;1.80;;;;;;;4.18;99.73;96774.88;10532285;28;20222;-66
2023/01/10 14:06:30;;;;;;;4.20;2.10;;;;;;;4.21;98.51;96768.63;10516503;28;20222;-65
2023/01/10 14:11:50;;;;;;;7.93;2.67;;;;;;;4.11;98.41;96778.88;10514960;28;20302;-67
2023/01/10 14:16:53;;;;;;;5.97;2.33;;;;;;;3.98;97.90;96771.19;10496594;28;20191;-64
2023/01/10 14:21:55;;;;;;;7.03;2.30;;;;;;;3.90;98.83;96778.69;10513228;28;20246;-66
2023/01/10 14:26:58;;;;;;;5.77;1.90;;;;;;;4.01;98.88;96778.75;10512740;28;20214;-66
2023/01/10 14:31:59;;;;;;;4.70;2.40;;;;;;;4.11;97.33;96765.91;10511488;28;20238;-63
2023/01/10 14:37:05;;;;;;;10.13;2.40;;;;;;;4.11;99.56;96794.41;10512250;28;20187;-67
2023/01/10 14:42:06;;;;;;;9.77;3.00;;;;;;;4.17;98.13;96769.81;10511276;28;20235;-66
2023/01/10 14:47:26;;;;;;;6.70;3.70;;;;;;;4.15;97.85;96766.50;10529057;28;20704;-66
2023/01/10 14:52:27;;;;;;;6.73;2.80;;;;;;;3.72;97.82;96775.69;10528180;28;20683;-66
2023/01/10 14:57:27;;;;;;;10.93;4.07;;;;;;;3.74;98.86;96781.59;10530387;28;20222;-66
2023/01/10 15:02:28;;;;;;;40.70;15.90;;;;;;;3.80;99.59;96795.84;10529520;28;20604;-66
2023/01/10 15:07:28;;;;;;;31.40;14.67;;;;;;;3.37;100.00;96807.56;10529141;28;20625;-65
2023/01/10 15:12:29;;;;;;;8.93;3.10;;;;;;;3.38;100.00;96823.00;10528545;28;20251;-65
2023/01/10 15:17:30;;;;;;;15.90;6.83;;;;;;;3.47;100.00;96816.31;10510313;28;20199;-64
2023/01/10 15:22:35;;;;;;;14.43;4.57;;;;;;;3.25;100.00;96827.38;10510098;28;20194;-66
2023/01/10 15:27:38;;;;;;;9.97;3.57;;;;;;;3.24;100.00;96830.88;10527781;28;20222;-64
2023/01/10 15:32:39;;;;;;;10.27;3.50;;;;;;;3.21;100.00;96842.28;10527452;28;20218;-65
2023/01/10 15:43:24;;;;;;;8.20;4.03;;;;;;;3.22;100.00;96841.34;10360103;28;20217;-61
2023/01/10 15:48:35;;;;;;;14.37;4.50;;;;;;;3.17;100.00;96843.44;10361843;28;20217;-61
2023/01/10 15:53:53;;;;;;;10.83;4.93;;;;;;;3.03;100.00;96843.56;10361746;28;20197;-61
2023/01/10 15:58:55;;;;;;;14.87;5.37;;;;;;;2.89;100.00;96857.44;10361436;28;20216;-60
2023/01/10 16:03:57;;;;;;;60.70;16.67;;;;;;;2.85;100.00;96858.63;10362966;28;20221;-63
2023/01/10 16:09:00;;;;;;;27.83;10.10;;;;;;;2.95;100.00;96856.22;10343646;28;20319;-63
2023/01/10 16:14:01;;;;;;;11.60;4.20;;;;;;;2.78;100.00;96865.94;10343723;28;20589;-62
2023/01/10 16:19:01;;;;;;;22.10;10.43;;;;;;;2.92;100.00;96859.00;10361455;28;20209;-62
2023/01/10 16:24:02;;;;;;;17.77;7.00;;;;;;;2.70;100.00;96852.72;10361253;28;20247;-61
2023/01/10 16:29:03;;;;;;;8.33;3.50;;;;;;;2.58;100.00;96859.53;10360083;28;20213;-59
2023/01/10 16:34:03;;;;;;;8.73;3.40;;;;;;;2.72;100.00;96865.56;10361853;28;20193;-60
2023/01/10 16:39:18;;;;;;;9.77;3.30;;;;;;;2.75;100.00;96858.41;10361281;28;21311;-61
2023/01/10 16:44:18;;;;;;;10.07;3.17;;;;;;;2.64;100.00;96863.47;10367931;28;20729;-61
2023/01/10 16:49:19;;;;;;;7.10;3.27;;;;;;;2.71;100.00;96850.94;10367057;28;20534;-60
2023/01/10 16:54:21;;;;;;;7.77;3.00;;;;;;;2.72;100.00;96847.44;10369673;28;20284;-63
2023/01/10 16:59:21;;;;;;;7.50;2.47;;;;;;;2.66;100.00;96839.19;10368178;28;20628;-60
2023/01/10 17:04:23;;;;;;;8.70;3.30;;;;;;;2.79;100.00;96846.91;10368082;28;20225;-60
2023/01/10 17:09:26;;;;;;;9.23;3.57;;;;;;;2.76;100.00;96844.53;10369084;28;20221;-61
2023/01/10 17:14:34;;;;;;;8.93;5.57;;;;;;;2.57;100.00;96842.34;10367052;28;20247;-61
2023/01/10 17:19:36;;;;;;;9.57;5.87;;;;;;;2.76;100.00;96847.13;10368502;28;20224;-61
2023/01/10 17:24:36;;;;;;;4.83;3.30;;;;;;;2.59;100.00;96844.84;10366900;28;20276;-59
2023/01/10 17:29:37;;;;;;;8.53;4.23;;;;;;;2.56;100.00;96852.81;10360763;28;20269;-61
2023/01/10 17:34:37;;;;;;;4.63;3.53;;;;;;;2.56;100.00;96857.97;10339553;28;20189;-62
2023/01/10 17:39:38;;;;;;;7.70;4.67;;;;;;;2.53;100.00;96860.78;10326960;28;20237;-59
2023/01/10 17:44:38;;;;;;;9.90;5.60;;;;;;;2.40;100.00;96859.00;10340073;28;20323;-59
2023/01/10 17:49:40;;;;;;;14.77;8.13;;;;;;;2.34;100.00;96851.66;10330523;28;20679;-61
2023/01/10 17:54:41;;;;;;;12.40;6.73;;;;;;;2.10;100.00;96852.38;10329361;28;20190;-63
2023/01/10 17:59:41;;;;;;;7.10;2.50;;;;;;;1.81;100.00;96848.25;10327708;28;20210;-62
2023/01/10 18:04:42;;;;;;;8.43;4.97;;;;;;;1.69;100.00;96845.53;10325423;28;20217;-61
2023/01/10 18:09:42;;;;;;;4.37;2.63;;;;;;;1.62;100.00;96849.41;10344249;28;20214;-61
2023/01/10 18:14:43;;;;;;;44.10;16.43;;;;;;;1.43;100.00;96867.84;10320928;28;20285;-61
2023/01/10 18:19:43;;;;;;;9.80;4.80;;;;;;;1.40;100.00;96886.09;10324929;28;20268;-62
2023/01/10 18:24:44;;;;;;;11.20;3.47;;;;;;;1.54;100.00;96885.22;10325629;28;20214;-61
2023/01/10 18:29:45;;;;;;;7.87;2.90;;;;;;;1.61;100.00;96889.09;10325771;28;20340;-62
2023/01/10 18:34:46;;;;;;;6.53;3.27;;;;;;;1.55;100.00;96874.81;10325344;28;20194;-61
2023/01/10 18:39:48;;;;;;;6.80;3.50;;;;;;;1.49;100.00;96864.06;10356829;28;20238;-60
2023/01/10 18:44:48;;;;;;;11.90;4.80;;;;;;;1.43;100.00;96865.25;10400636;28;20591;-60
2023/01/10 18:49:49;;;;;;;8.30;3.27;;;;;;;1.32;100.00;96860.75;10397336;28;20231;-61
2023/01/10 18:54:50;;;;;;;15.43;6.67;;;;;;;1.24;100.00;96876.72;10406676;28;20189;-61
2023/01/10 18:59:51;;;;;;;11.20;5.53;;;;;;;1.11;100.00;96870.66;10394521;28;20202;-60
2023/01/10 19:04:51;;;;;;;10.77;2.97;;;;;;;1.17;100.00;96859.13;10362757;28;20220;-61
2023/01/10 19:09:51;;;;;;;6.43;3.43;;;;;;;1.04;100.00;96854.72;10367465;28;20217;-60
2023/01/10 19:14:52;;;;;;;18.83;11.33;;;;;;;0.71;100.00;96845.53;10365320;28;20243;-61
2023/01/10 19:19:53;;;;;;;20.37;10.47;;;;;;;0.60;100.00;96842.78;10359303;28;20209;-58
2023/01/10 19:24:53;;;;;;;8.43;3.57;;;;;;;0.56;100.00;96848.19;10366310;28;20346;-60
2023/01/10 19:29:53;;;;;;;6.83;2.80;;;;;;;0.45;100.00;96834.19;10364448;28;20703;-60
2023/01/10 19:34:54;;;;;;;9.33;3.40;;;;;;;0.38;100.00;96834.66;10363465;28;20547;-61
2023/01/10 19:39:54;;;;;;;6.57;2.77;;;;;;;0.38;100.00;96830.31;10366051;28;20746;-61
2023/01/10 19:44:55;;;;;;;6.43;3.17;;;;;;;0.29;100.00;96836.84;10387320;28;20234;-60
2023/01/10 19:49:55;;;;;;;3.93;2.20;;;;;;;0.31;100.00;96832.44;10364388;28;20213;-61
2023/01/10 19:54:55;;;;;;;8.10;3.03;;;;;;;0.26;100.00;96823.31;10363764;28;20302;-60
2023/01/10 19:59:56;;;;;;;7.47;2.77;;;;;;;0.20;100.00;96823.66;10364240;28;20581;-61
2023/01/10 20:04:57;;;;;;;7.70;2.77;;;;;;;0.08;100.00;96817.50;10364027;28;20582;-61
2023/01/10 20:09:57;;;;;;;7.60;2.30;;;;;;;0.10;100.00;96808.75;10364492;28;20213;-61
2023/01/10 20:14:57;;;;;;;5.43;2.30;;;;;;;0.08;100.00;96802.03;10324910;28;20189;-60
2023/01/10 20:19:59;;;;;;;6.27;2.47;;;;;;;0.07;100.00;96796.03;10322597;28;20221;-60
2023/01/10 20:24:59;;;;;;;5.77;2.03;;;;;;;0.10;100.00;96798.44;10323379;28;20272;-59
2023/01/10 20:30:00;;;;;;;4.90;1.80;;;;;;;0.07;100.00;96793.47;10324232;28;20340;-61
2023/01/10 20:35:00;;;;;;;2.77;1.80;;;;;;;0.11;100.00;96771.78;10322449;28;20283;-61
2023/01/10 20:40:02;;;;;;;5.40;2.00;;;;;;;0.03;100.00;96773.13;10323370;28;20315;-60
2023/01/10 20:45:03;;;;;;;6.40;1.80;;;;;;;0.00;100.00;96774.16;10323366;28;20306;-62
2023/01/10 20:50:03;;;;;;;7.50;2.00;;;;;;;-0.08;100.00;96758.31;10322462;28;20206;-62
2023/01/10 20:55:04;;;;;;;5.77;1.90;;;;;;;-0.08;100.00;96753.16;10322574;28;20197;-62
2023/01/10 21:00:05;;;;;;;2.20;1.00;;;;;;;0.02;100.00;96751.72;10319348;28;20237;-60
2023/01/10 21:05:05;;;;;;;4.77;1.73;;;;;;;0.12;100.00;96744.25;10320711;28;20227;-60
2023/01/10 21:10:06;;;;;;;3.10;1.40;;;;;;;0.25;100.00;96741.81;10322655;28;20221;-61
2023/01/10 21:15:07;;;;;;;5.97;1.60;;;;;;;0.27;100.00;96745.91;10324566;28;20190;-61
2023/01/10 21:20:08;;;;;;;3.20;1.40;;;;;;;0.16;100.00;96719.97;10325404;28;20206;-61
2023/01/10 21:25:09;;;;;;;3.93;1.70;;;;;;;0.08;100.00;96727.34;10322669;28;20194;-61
2023/01/10 21:30:10;;;;;;;4.63;1.90;;;;;;;0.17;100.00;96734.53;10326337;28;20224;-60
2023/01/10 21:35:10;;;;;;;6.17;2.03;;;;;;;0.27;100.00;96729.63;10326793;28;20266;-60
2023/01/10 21:40:11;;;;;;;8.83;2.00;;;;;;;0.21;100.00;96725.69;10418396;22;20656;-65
2023/01/10 21:45:11;;;;;;;2.97;2.17;;;;;;;0.07;100.00;96733.41;10493687;28;20213;-64
2023/01/10 21:50:12;;;;;;;5.20;2.27;;;;;;;0.03;100.00;96739.66;10494564;28;20231;-67
2023/01/10 21:55:14;;;;;;;6.13;2.73;;;;;;;-0.27;100.00;96736.22;10493755;28;20226;-67
2023/01/10 22:00:14;;;;;;;4.90;2.40;;;;;;;-0.20;100.00;96745.25;10493561;28;20823;-65
2023/01/10 22:05:15;;;;;;;4.50;2.33;;;;;;;-0.11;100.00;96745.63;10492778;28;20278;-66
2023/01/10 22:10:15;;;;;;;1.93;1.47;;;;;;;-0.08;100.00;96735.97;10493776;28;20222;-65
2023/01/10 22:15:16;;;;;;;8.73;2.70;;;;;;;-0.13;100.00;96732.84;10492918;28;20693;-66
2023/01/10 22:20:16;;;;;;;5.67;3.20;;;;;;;-0.03;100.00;96730.53;10493826;28;20222;-65
2023/01/10 22:25:16;;;;;;;7.83;2.90;;;;;;;-0.12;100.00;96721.63;10492985;28;20183;-64
2023/01/10 22:30:17;;;;;;;5.80;2.83;;;;;;;-0.04;100.00;96727.13;10492522;28;20215;-63
2023/01/10 22:35:17;;;;;;;7.93;2.73;;;;;;;-0.06;100.00;96707.53;10491744;28;20219;-65
2023/01/10 22:40:17;;;;;;;8.93;3.07;;;;;;;0.12;100.00;96703.91;10476970;28;20242;-63
2023/01/10 22:45:18;;;;;;;5.83;2.87;;;;;;;0.21;100.00;96684.47;10450858;28;20658;-64
2023/01/10 22:50:18;;;;;;;6.90;2.80;;;;;;;0.05;100.00;96663.16;10422278;28;20702;-63
2023/01/10 22:55:18;;;;;;;8.03;2.07;;;;;;;0.20;100.00;96669.09;10409621;28;20766;-66
2023/01/10 23:00:19;;;;;;;7.10;2.70;;;;;;;0.19;100.00;96650.25;10438789;28;20880;-66
2023/01/10 23:05:19;;;;;;;9.87;2.53;;;;;;;0.27;100.00;96649.78;10450566;28;20605;-66
2023/01/10 23:10:20;;;;;;;4.20;1.87;;;;;;;0.29;100.00;96624.72;10450245;28;20301;-66
2023/01/10 23:15:20;;;;;;;6.47;2.37;;;;;;;0.32;100.00;96620.25;10449649;28;20236;-65
2023/01/10 23:20:20;;;;;;;5.17;2.10;;;;;;;0.34;100.00;96617.56;10450042;28;20218;-64
2023/01/10 23:25:21;;;;;;;7.97;2.67;;;;;;;0.39;100.00;96618.09;10449474;28;20223;-66
2023/01/10 23:30:25;;;;;;;10.97;2.90;;;;;;;0.39;100.00;96606.97;10449847;28;20212;-64
2023/01/10 23:35:25;;;;;;;7.17;2.67;;;;;;;0.42;100.00;96604.19;10449489;28;20590;-66
2023/01/10 23:40:26;;;;;;;6.63;2.60;;;;;;;0.36;100.00;96605.41;10448914;28;20234;-67
2023/01/10 23:45:26;;;;;;;7.20;2.20;;;;;;;0.34;100.00;96594.38;10448513;28;20670;-66
2023/01/10 23:50:26;;;;;;;3.93;1.70;;;;;;;0.43;100.00;96593.81;10448340;28;20276;-66
2023/01/10 23:55:27;;;;;;;8.63;2.37;;;;;;;0.54;100.00;96577.66;10448224;28;20303;-66
